createdAt,value
2019-03-27T00:00:12.271Z,5.05
2019-03-27T00:02:41.025Z,5.26
2019-03-27T00:05:09.727Z,5.06
2019-03-27T00:07:38.445Z,5.29
2019-03-27T00:10:08.356Z,5.10
2019-03-27T00:12:37.229Z,5.05
2019-03-27T00:15:13.341Z,4.62
2019-03-27T00:17:38.941Z,4.92
2019-03-27T00:20:08.043Z,4.87
2019-03-27T00:22:36.821Z,5.12
2019-03-27T00:25:05.909Z,4.78
2019-03-27T00:27:34.531Z,4.97
2019-03-27T00:30:03.243Z,5.11
2019-03-27T00:32:31.948Z,5.07
2019-03-27T00:35:00.640Z,5.11
2019-03-27T00:37:29.407Z,5.03
2019-03-27T00:39:58.130Z,4.91
2019-03-27T00:42:26.790Z,5.04
2019-03-27T00:44:55.522Z,5.07
2019-03-27T00:47:24.182Z,4.85
2019-03-27T00:49:52.924Z,4.52
2019-03-27T00:52:21.647Z,4.56
2019-03-27T00:54:50.358Z,4.41
2019-03-27T00:57:19.097Z,4.84
2019-03-27T00:59:47.786Z,4.69
2019-03-27T01:02:16.604Z,4.76
2019-03-27T01:04:45.338Z,4.81
2019-03-27T01:07:14.027Z,4.77
2019-03-27T01:09:42.725Z,4.48
2019-03-27T01:12:11.447Z,3.91
2019-03-27T01:14:40.167Z,3.98
2019-03-27T01:17:08.878Z,4.13
2019-03-27T01:19:37.617Z,3.84
2019-03-27T01:22:06.349Z,4.17
2019-03-27T01:24:35.081Z,4.28
2019-03-27T01:27:03.765Z,4.03
2019-03-27T01:57:37.714Z,3.59
2019-03-27T02:00:08.790Z,3.56
2019-03-27T02:02:37.603Z,3.26
2019-03-27T02:05:06.400Z,3.33
2019-03-27T02:07:35.099Z,3.12
2019-03-27T02:10:03.985Z,3.45
2019-03-27T02:12:32.776Z,3.70
2019-03-27T02:35:38.814Z,3.05
2019-03-27T02:38:07.503Z,2.94
2019-03-27T02:40:36.217Z,3.26
2019-03-27T02:43:04.930Z,2.93
2019-03-27T02:45:33.682Z,2.83
2019-03-27T02:48:02.356Z,3.43
2019-03-27T02:50:31.010Z,3.33
2019-03-27T02:52:59.718Z,2.94
2019-03-27T02:55:28.445Z,3.16
2019-03-27T02:57:57.319Z,2.98
2019-03-27T03:00:26.046Z,3.13
2019-03-27T03:02:54.793Z,3.03
2019-03-27T03:05:23.457Z,3.44
2019-03-27T03:07:52.118Z,3.51
2019-03-27T03:10:21.161Z,2.39
2019-03-27T03:12:49.855Z,3.01
2019-03-27T03:15:24.318Z,3.20
2019-03-27T03:17:53.029Z,3.44
2019-03-27T03:20:21.707Z,2.98
2019-03-27T03:22:50.396Z,2.66
2019-03-27T03:25:19.095Z,2.51
2019-03-27T03:27:47.833Z,2.81
2019-03-27T03:30:16.520Z,3.13
2019-03-27T03:32:46.296Z,3.29
2019-03-27T03:35:15.037Z,3.42
2019-03-27T03:37:43.814Z,3.32
2019-03-27T03:40:14.277Z,3.35
2019-03-27T03:42:42.940Z,2.96
2019-03-27T03:45:11.747Z,3.23
2019-03-27T03:47:40.468Z,2.59
2019-03-27T03:50:14.345Z,2.62
2019-03-27T03:52:45.871Z,2.31
2019-03-27T03:55:13.495Z,2.55
2019-03-27T03:57:44.219Z,2.70
2019-03-27T04:00:13.078Z,2.52
2019-03-27T04:02:41.834Z,2.49
2019-03-27T04:05:13.437Z,2.60
2019-03-27T04:07:42.293Z,2.79
2019-03-27T04:10:11.342Z,2.62
2019-03-27T04:12:40.009Z,2.76
2019-03-27T04:15:08.864Z,2.70
2019-03-27T04:17:37.614Z,2.33
2019-03-27T04:20:07.322Z,2.68
2019-03-27T04:22:36.096Z,2.71
2019-03-27T04:25:04.993Z,2.13
2019-03-27T04:27:33.748Z,1.81
2019-03-27T04:30:02.502Z,2.11
2019-03-27T04:32:31.187Z,2.52
2019-03-27T04:34:59.911Z,2.57
2019-03-27T04:37:28.590Z,2.70
2019-03-27T04:39:57.363Z,2.38
2019-03-27T04:42:28.193Z,1.97
2019-03-27T04:44:57.019Z,1.76
2019-03-27T04:47:31.969Z,1.60
2019-03-27T04:49:56.106Z,1.75
2019-03-27T04:52:24.744Z,1.79
2019-03-27T04:54:53.466Z,2.08
2019-03-27T04:57:22.190Z,2.13
2019-03-27T04:59:50.820Z,2.23
2019-03-27T05:02:19.554Z,2.52
2019-03-27T05:04:53.236Z,2.18
2019-03-27T05:07:21.993Z,2.11
2019-03-27T05:09:50.842Z,2.50
2019-03-27T05:12:21.578Z,2.13
2019-03-27T05:14:50.256Z,1.98
2019-03-27T05:17:18.971Z,2.33
2019-03-27T05:19:47.745Z,2.24
2019-03-27T05:22:16.448Z,2.17
2019-03-27T05:24:45.136Z,2.08
2019-03-27T05:27:13.818Z,2.29
2019-03-27T05:29:42.545Z,2.27
2019-03-27T05:32:11.297Z,2.23
2019-03-27T05:34:40.127Z,2.30
2019-03-27T05:37:09.147Z,2.41
2019-03-27T05:39:37.877Z,2.41
2019-03-27T05:42:06.687Z,2.47
2019-03-27T05:44:35.390Z,2.50
2019-03-27T05:47:04.079Z,2.53
2019-03-27T05:49:32.777Z,2.60
2019-03-27T05:52:01.535Z,2.63
2019-03-27T05:54:30.236Z,2.66
2019-03-27T05:56:59.033Z,2.71
2019-03-27T05:59:27.834Z,2.77
2019-03-27T06:01:56.657Z,2.83
2019-03-27T06:04:25.392Z,2.89
2019-03-27T06:06:54.147Z,2.94
2019-03-27T06:09:22.778Z,2.98
2019-03-27T06:11:51.754Z,3.05
2019-03-27T06:14:20.619Z,3.07
2019-03-27T06:16:49.382Z,3.15
2019-03-27T06:19:18.112Z,3.20
2019-03-27T06:21:46.850Z,3.26
2019-03-27T06:24:15.510Z,3.29
2019-03-27T06:26:44.268Z,3.34
2019-03-27T06:29:15.732Z,3.38
2019-03-27T06:31:43.396Z,3.41
2019-03-27T06:34:12.118Z,3.43
2019-03-27T06:36:40.764Z,3.50
2019-03-27T06:39:09.558Z,3.56
2019-03-27T06:41:38.289Z,3.61
2019-03-27T06:44:07.109Z,3.70
2019-03-27T06:46:35.905Z,3.77
2019-03-27T06:49:04.657Z,3.88
2019-03-27T06:51:40.111Z,3.92
2019-03-27T06:54:03.713Z,4.00
2019-03-27T06:56:32.425Z,4.17
2019-03-27T06:59:01.192Z,4.26
2019-03-27T07:01:29.927Z,4.29
2019-03-27T07:04:09.792Z,4.38
2019-03-27T07:06:29.179Z,4.41
2019-03-27T07:08:57.945Z,4.44
2019-03-27T07:11:26.707Z,4.56
2019-03-27T07:13:55.411Z,4.69
2019-03-27T07:16:24.110Z,4.75
2019-03-27T07:18:52.905Z,4.79
2019-03-27T07:21:21.606Z,4.87
2019-03-27T07:23:50.380Z,4.95
2019-03-27T07:26:19.148Z,4.90
2019-03-27T07:28:47.916Z,5.01
2019-03-27T07:31:16.615Z,5.08
2019-03-27T07:33:47.726Z,5.09
2019-03-27T07:36:16.390Z,5.15
2019-03-27T07:38:45.202Z,5.35
2019-03-27T07:41:13.879Z,5.41
2019-03-27T07:43:42.636Z,5.54
2019-03-27T07:46:11.410Z,5.58
2019-03-27T07:48:52.896Z,5.25
2019-03-27T07:51:10.550Z,5.36
2019-03-27T07:53:39.368Z,5.30
2019-03-27T07:56:08.088Z,5.33
2019-03-27T07:58:36.749Z,5.40
2019-03-27T08:01:05.476Z,5.63
2019-03-27T08:03:34.235Z,5.70
2019-03-27T08:06:02.953Z,5.50
2019-03-27T08:08:31.662Z,5.21
2019-03-27T08:11:00.421Z,5.19
2019-03-27T08:13:29.137Z,5.43
2019-03-27T08:15:57.893Z,5.47
2019-03-27T08:18:26.633Z,5.88
2019-03-27T08:20:55.298Z,5.61
2019-03-27T08:23:24.051Z,5.52
2019-03-27T08:25:52.741Z,5.71
2019-03-27T08:28:21.514Z,5.73
2019-03-27T08:30:50.174Z,5.74
2019-03-27T08:33:18.863Z,5.87
2019-03-27T08:35:47.628Z,5.77
2019-03-27T08:38:16.324Z,5.89
2019-03-27T08:40:45.032Z,5.96
2019-03-27T08:43:21.099Z,5.93
2019-03-27T08:45:44.219Z,5.76
2019-03-27T08:48:12.986Z,6.46
2019-03-27T08:50:41.798Z,6.38
2019-03-27T08:53:10.563Z,6.54
2019-03-27T08:55:39.398Z,6.26
2019-03-27T08:58:08.119Z,6.41
2019-03-27T09:00:55.640Z,6.38
2019-03-27T09:03:24.300Z,6.70
2019-03-27T09:05:53.064Z,6.70
2019-03-27T09:08:21.971Z,6.38
2019-03-27T09:10:50.727Z,6.71
2019-03-27T09:13:19.505Z,7.30
2019-03-27T09:15:48.213Z,7.56
2019-03-27T09:18:17.149Z,7.57
2019-03-27T09:20:45.944Z,7.51
2019-03-27T09:23:14.683Z,7.91
2019-03-27T09:25:43.423Z,7.26
2019-03-27T09:28:12.159Z,7.57
2019-03-27T09:30:40.823Z,8.49
2019-03-27T09:33:09.567Z,9.13
2019-03-27T09:35:38.761Z,8.81
2019-03-27T09:38:07.497Z,8.74
2019-03-27T09:40:36.185Z,9.19
2019-03-27T09:43:04.947Z,9.17
2019-03-27T09:45:33.610Z,9.66
2019-03-27T09:48:02.422Z,9.06
2019-03-27T09:50:31.137Z,9.30
2019-03-27T09:53:00.019Z,9.17
2019-03-27T09:55:28.834Z,9.91
2019-03-27T09:57:57.601Z,9.15
2019-03-27T10:00:53.627Z,9.70
2019-03-27T10:03:22.435Z,9.74
2019-03-27T10:05:51.201Z,9.61
2019-03-27T10:08:20.017Z,9.67
2019-03-27T10:10:48.769Z,10.28
2019-03-27T10:13:17.432Z,9.68
2019-03-27T10:15:46.212Z,8.98
2019-03-27T10:18:14.964Z,10.07
2019-03-27T10:20:43.703Z,10.64
2019-03-27T10:23:12.436Z,9.27
2019-03-27T10:25:41.214Z,10.55
2019-03-27T10:28:09.958Z,9.86
2019-03-27T10:30:38.789Z,10.28
2019-03-27T10:33:07.511Z,9.66
2019-03-27T10:35:36.240Z,10.04
2019-03-27T10:38:05.641Z,10.42
2019-03-27T10:40:34.479Z,9.40
2019-03-27T10:43:03.214Z,9.98
2019-03-27T10:45:31.883Z,11.23
2019-03-27T10:48:00.549Z,10.51
2019-03-27T10:50:29.271Z,12.42
2019-03-27T10:52:58.027Z,11.90
2019-03-27T10:55:26.773Z,10.02
2019-03-27T10:57:55.515Z,11.55
2019-03-27T11:00:24.224Z,11.50
2019-03-27T11:02:53.271Z,11.62
2019-03-27T11:05:22.014Z,10.85
2019-03-27T11:07:50.714Z,10.52
2019-03-27T11:10:19.472Z,10.56
2019-03-27T11:12:48.166Z,11.97
2019-03-27T11:15:17.495Z,12.40
2019-03-27T11:17:46.196Z,12.28
2019-03-27T11:20:35.068Z,13.89
2019-03-27T11:23:03.844Z,12.81
2019-03-27T11:25:33.355Z,11.77
2019-03-27T11:28:02.139Z,10.44
2019-03-27T11:30:49.728Z,10.96
2019-03-27T11:33:18.477Z,9.91
2019-03-27T11:35:47.163Z,9.87
2019-03-27T11:38:15.915Z,11.16
2019-03-27T11:40:44.618Z,11.07
2019-03-27T11:43:13.357Z,12.53
2019-03-27T11:45:42.161Z,11.88
2019-03-27T11:48:10.807Z,11.96
2019-03-27T11:50:45.170Z,12.23
2019-03-27T11:53:08.723Z,12.00
2019-03-27T11:55:37.447Z,12.61
2019-03-27T11:58:06.283Z,11.96
2019-03-27T12:00:34.997Z,12.38
2019-03-27T12:03:03.734Z,12.20
2019-03-27T12:05:32.455Z,11.79
2019-03-27T12:08:01.158Z,12.01
2019-03-27T12:10:29.898Z,13.51
2019-03-27T12:12:58.663Z,14.37
2019-03-27T12:15:39.161Z,13.12
2019-03-27T12:18:08.257Z,13.92
2019-03-27T12:20:37.279Z,13.01
2019-03-27T12:23:05.983Z,12.86
2019-03-27T12:25:34.733Z,13.83
2019-03-27T12:28:03.494Z,13.52
2019-03-27T12:30:32.288Z,14.51
2019-03-27T12:33:01.891Z,13.03
2019-03-27T12:35:30.642Z,13.48
2019-03-27T12:37:59.431Z,12.54
2019-03-27T12:40:28.156Z,11.63
2019-03-27T12:42:56.926Z,13.56
2019-03-27T12:45:25.634Z,13.36
2019-03-27T12:47:54.380Z,13.36
2019-03-27T12:50:23.120Z,12.62
2019-03-27T12:52:51.918Z,12.57
2019-03-27T12:55:20.663Z,12.77
2019-03-27T12:57:49.926Z,13.26
2019-03-27T13:00:18.835Z,15.19
2019-03-27T13:02:47.565Z,13.38
2019-03-27T13:05:16.496Z,13.84
2019-03-27T13:07:50.095Z,13.91
2019-03-27T13:10:14.680Z,13.64
2019-03-27T13:12:43.330Z,13.51
2019-03-27T13:15:12.172Z,14.73
2019-03-27T13:17:40.891Z,15.42
2019-03-27T13:20:10.219Z,13.91
2019-03-27T13:22:39.570Z,12.04
2019-03-27T13:25:09.440Z,13.64
2019-03-27T13:27:38.213Z,13.93
2019-03-27T13:30:07.216Z,16.33
2019-03-27T13:32:36.321Z,16.33
2019-03-27T13:35:05.387Z,12.67
2019-03-27T13:37:34.291Z,13.50
2019-03-27T13:40:03.033Z,15.28
2019-03-27T13:42:31.881Z,14.06
2019-03-27T13:45:00.724Z,14.06
2019-03-27T13:47:29.654Z,14.75
2019-03-27T13:49:58.713Z,16.58
2019-03-27T13:52:27.466Z,14.66
2019-03-27T13:54:56.344Z,14.38
2019-03-27T13:57:25.099Z,15.14
2019-03-27T13:59:54.330Z,14.58
2019-03-27T14:02:23.113Z,15.02
2019-03-27T14:04:51.922Z,13.94
2019-03-27T14:07:20.740Z,14.19
2019-03-27T14:09:49.774Z,14.06
2019-03-27T14:12:21.259Z,14.10
2019-03-27T14:14:50.853Z,11.43
2019-03-27T14:17:19.536Z,11.81
2019-03-27T14:19:48.244Z,13.41
2019-03-27T14:22:17.409Z,13.61
2019-03-27T14:24:46.214Z,11.81
2019-03-27T14:27:15.058Z,13.29
2019-03-27T14:29:43.864Z,12.01
2019-03-27T14:32:12.802Z,11.74
2019-03-27T14:34:41.555Z,12.53
2019-03-27T14:37:10.321Z,13.83
2019-03-27T14:39:39.131Z,13.62
2019-03-27T14:42:07.847Z,13.20
2019-03-27T14:44:36.560Z,13.73
2019-03-27T14:47:05.395Z,13.10
2019-03-27T14:49:37.477Z,14.36
2019-03-27T14:52:08.581Z,13.96
2019-03-27T14:54:35.385Z,13.83
2019-03-27T14:57:04.045Z,13.80
2019-03-27T14:59:32.963Z,13.90
2019-03-27T15:02:01.793Z,14.83
2019-03-27T15:04:30.948Z,12.97
2019-03-27T15:06:59.714Z,12.74
2019-03-27T15:09:28.479Z,13.44
2019-03-27T15:11:57.338Z,13.43
2019-03-27T15:14:26.085Z,12.92
2019-03-27T15:16:54.808Z,13.72
2019-03-27T15:19:23.537Z,12.52
2019-03-27T15:21:52.343Z,12.59
2019-03-27T15:24:21.205Z,12.54
2019-03-27T15:26:51.266Z,12.44
2019-03-27T15:29:20.202Z,12.94
2019-03-27T15:31:49.071Z,12.51
2019-03-27T15:34:18.003Z,12.77
2019-03-27T15:36:46.822Z,12.81
2019-03-27T15:39:15.863Z,11.66
2019-03-27T15:41:44.699Z,12.81
2019-03-27T15:44:13.797Z,11.86
2019-03-27T15:46:42.801Z,10.93
2019-03-27T15:49:11.723Z,11.47
2019-03-27T15:51:40.533Z,11.70
2019-03-27T15:54:09.251Z,12.04
2019-03-27T15:56:38.582Z,12.73
2019-03-27T15:59:07.576Z,11.71
2019-03-27T16:01:36.324Z,12.70
2019-03-27T16:04:05.070Z,12.59
2019-03-27T16:06:33.934Z,11.89
2019-03-27T16:09:02.882Z,11.97
2019-03-27T16:11:31.602Z,11.14
2019-03-27T16:14:00.431Z,12.67
2019-03-27T16:16:29.315Z,12.56
2019-03-27T16:18:59.074Z,12.92
2019-03-27T16:21:27.904Z,13.36
2019-03-27T16:24:06.313Z,12.86
2019-03-27T16:26:27.116Z,12.23
2019-03-27T16:28:55.876Z,12.02
2019-03-27T16:31:24.756Z,12.50
2019-03-27T16:33:53.825Z,11.19
2019-03-27T16:36:23.063Z,12.68
2019-03-27T16:38:52.037Z,11.93
2019-03-27T16:41:20.755Z,10.58
2019-03-27T16:43:49.775Z,11.17
2019-03-27T16:46:18.565Z,10.88
2019-03-27T16:48:49.362Z,11.28
2019-03-27T16:51:18.285Z,11.03
2019-03-27T16:53:47.074Z,12.78
2019-03-27T16:56:15.925Z,11.89
2019-03-27T16:58:45.024Z,11.00
2019-03-27T17:01:14.549Z,11.59
2019-03-27T17:03:43.246Z,12.16
2019-03-27T17:06:12.087Z,11.98
2019-03-27T17:08:44.293Z,12.15
2019-03-27T17:11:13.014Z,10.55
2019-03-27T17:13:41.881Z,11.09
2019-03-27T17:16:10.675Z,10.49
2019-03-27T17:18:39.395Z,10.73
2019-03-27T17:21:08.189Z,11.29
2019-03-27T17:23:37.013Z,11.97
2019-03-27T17:26:05.808Z,10.50
2019-03-27T17:28:34.756Z,10.02
2019-03-27T17:31:03.507Z,9.82
2019-03-27T17:33:32.222Z,9.93
2019-03-27T17:36:01.253Z,10.31
2019-03-27T17:38:30.417Z,10.40
2019-03-27T17:40:59.520Z,10.34
2019-03-27T17:43:28.355Z,9.23
2019-03-27T17:45:57.209Z,9.57
2019-03-27T17:48:26.080Z,9.97
2019-03-27T17:50:54.868Z,9.49
2019-03-27T17:53:31.481Z,9.44
2019-03-27T17:55:56.082Z,9.59
2019-03-27T17:58:25.161Z,9.60
2019-03-27T18:00:56.381Z,10.19
2019-03-27T18:03:25.431Z,10.49
2019-03-27T18:05:54.774Z,10.13
2019-03-27T18:08:23.609Z,9.30
2019-03-27T18:10:52.523Z,9.56
2019-03-27T18:13:21.343Z,9.89
2019-03-27T18:15:50.519Z,10.42
2019-03-27T18:18:19.469Z,10.74
2019-03-27T18:20:48.471Z,10.76
2019-03-27T18:23:17.361Z,10.65
2019-03-27T18:25:46.520Z,10.65
2019-03-27T18:28:15.857Z,10.51
2019-03-27T18:30:44.912Z,10.76
2019-03-27T18:33:14.262Z,10.69
2019-03-27T18:35:43.213Z,10.72
2019-03-27T18:38:12.153Z,10.64
2019-03-27T18:40:41.856Z,10.59
2019-03-27T18:43:11.069Z,10.59
2019-03-27T18:45:40.436Z,10.51
2019-03-27T18:48:10.385Z,10.56
2019-03-27T18:50:39.822Z,10.60
2019-03-27T18:53:09.569Z,10.55
2019-03-27T18:55:39.451Z,10.43
2019-03-27T18:58:08.871Z,10.37
2019-03-27T19:00:38.658Z,10.30
2019-03-27T19:03:07.773Z,10.19
2019-03-27T19:05:37.339Z,10.24
2019-03-27T19:08:06.746Z,10.14
2019-03-27T19:10:36.174Z,10.15
2019-03-27T19:13:05.655Z,10.09
2019-03-27T19:15:35.093Z,10.10
2019-03-27T19:18:05.599Z,10.15
2019-03-27T19:20:35.986Z,10.08
2019-03-27T19:23:05.650Z,10.04
2019-03-27T19:25:35.239Z,9.97
2019-03-27T19:28:05.397Z,10.05
2019-03-27T19:30:35.109Z,9.94
2019-03-27T19:33:04.951Z,9.69
2019-03-27T19:35:35.388Z,9.94
2019-03-27T19:38:03.723Z,9.87
2019-03-27T19:40:33.848Z,9.85
2019-03-27T19:43:03.425Z,9.85
2019-03-27T19:45:33.510Z,9.73
2019-03-27T19:48:03.509Z,9.79
2019-03-27T19:50:33.861Z,9.71
2019-03-27T19:53:02.611Z,9.75
2019-03-27T19:55:32.855Z,9.67
2019-03-27T19:58:03.070Z,9.70
2019-03-27T20:00:33.452Z,9.70
2019-03-27T20:03:02.162Z,9.70
2019-03-27T20:05:32.619Z,9.67
2019-03-27T20:08:01.248Z,9.67
2019-03-27T20:10:31.160Z,9.53
2019-03-27T20:13:01.990Z,9.57
2019-03-27T20:15:32.297Z,9.45
2019-03-27T20:18:03.367Z,9.48
2019-03-27T20:20:33.177Z,9.32
2019-03-27T20:23:14.382Z,9.17
2019-03-27T20:25:34.243Z,9.30
2019-03-27T20:28:04.151Z,9.41
2019-03-27T20:30:34.293Z,9.50
2019-03-27T20:33:04.996Z,9.40
2019-03-27T20:35:35.043Z,9.37
2019-03-27T20:38:06.870Z,9.06
2019-03-27T20:40:39.517Z,9.05
2019-03-27T20:43:09.649Z,9.28
2019-03-27T20:45:40.215Z,9.39
2019-03-27T20:48:10.161Z,9.29
2019-03-27T20:50:40.504Z,9.13
2019-03-27T20:53:09.834Z,9.10
2019-03-27T20:55:39.743Z,9.18
2019-03-27T20:58:09.646Z,9.29
2019-03-27T21:00:39.166Z,9.26
2019-03-27T21:03:08.493Z,8.86
2019-03-27T21:05:37.897Z,8.59
2019-03-27T21:08:06.903Z,8.35
2019-03-27T21:10:36.312Z,8.28
2019-03-27T21:13:05.819Z,8.27
2019-03-27T21:15:38.369Z,8.29
2019-03-27T21:18:05.994Z,8.27
2019-03-27T21:20:35.747Z,8.75
2019-03-27T21:23:06.155Z,8.51
2019-03-27T21:25:35.318Z,8.64
2019-03-27T21:28:05.156Z,8.54
2019-03-27T21:30:34.338Z,8.59
2019-03-27T21:33:03.512Z,8.67
2019-03-27T21:35:32.802Z,8.73
2019-03-27T21:38:01.941Z,8.78
2019-03-27T21:40:31.022Z,8.68
2019-03-27T21:43:00.260Z,8.72
2019-03-27T21:45:32.135Z,8.51
2019-03-27T21:48:00.283Z,8.74
2019-03-27T21:50:29.268Z,8.36
2019-03-27T21:53:00.808Z,8.25
2019-03-27T21:55:41.860Z,8.53
2019-03-27T21:57:59.253Z,8.57
2019-03-27T22:00:38.730Z,8.59
2019-03-27T22:03:07.812Z,7.63
2019-03-27T22:05:36.735Z,8.46
2019-03-27T22:08:05.626Z,8.28
2019-03-27T22:10:34.649Z,8.15
2019-03-27T22:13:03.557Z,8.10
2019-03-27T22:15:32.365Z,8.13
2019-03-27T22:18:01.238Z,8.01
2019-03-27T22:20:29.957Z,8.21
2019-03-27T22:22:58.697Z,8.42
2019-03-27T22:25:35.732Z,8.64
2019-03-27T22:27:56.681Z,8.78
2019-03-27T22:30:25.390Z,8.69
2019-03-27T22:32:54.286Z,8.52
2019-03-27T22:35:23.062Z,8.65
2019-03-27T22:37:51.814Z,8.60
2019-03-27T22:40:20.568Z,7.97
2019-03-27T22:42:49.545Z,7.96
2019-03-27T22:45:18.302Z,7.98
2019-03-27T22:47:47.078Z,8.21
2019-03-27T22:50:15.827Z,8.04
2019-03-27T22:52:44.598Z,8.02
2019-03-27T22:55:13.410Z,8.21
2019-03-27T22:57:42.248Z,8.14
2019-03-27T23:00:14.922Z,8.02
2019-03-27T23:02:43.696Z,8.01
2019-03-27T23:05:12.420Z,8.06
2019-03-27T23:07:41.108Z,7.70
2019-03-27T23:10:09.945Z,7.81
2019-03-27T23:12:38.686Z,7.61
2019-03-27T23:15:08.283Z,7.58
2019-03-27T23:17:37.063Z,7.55
2019-03-27T23:20:07.263Z,7.41
2019-03-27T23:22:36.031Z,7.14
2019-03-27T23:25:04.907Z,7.87
2019-03-27T23:27:33.633Z,7.79
2019-03-27T23:30:02.353Z,7.65
2019-03-27T23:32:31.069Z,7.84
2019-03-27T23:34:59.814Z,7.87
2019-03-27T23:37:28.583Z,7.56
2019-03-27T23:39:57.301Z,7.94
2019-03-27T23:42:26.049Z,7.85
2019-03-27T23:44:54.744Z,7.61
2019-03-27T23:47:23.815Z,7.40
2019-03-27T23:49:52.482Z,7.56
2019-03-27T23:52:21.182Z,7.76
2019-03-27T23:54:49.978Z,7.56
2019-03-27T23:57:18.709Z,7.42
2019-03-27T23:59:47.446Z,7.26
